Terminal Aerodrome Forecast
Issued by NWS

Current Version | Previous Version | Text Only | Print | Product List | Glossary On
Versions: 1 2 3 4 5 6 7 8 9 10 11 12 13 14
173
FTUS45 KRIW 191120
TAFRKS
TAF
KRKS 191120Z 1912/2012 10011KT P6SM SCT120 BKN200
     FM191800 12012G19KT P6SM SCT100 BKN150
     FM200200 06024G32KT P6SM VCSH SCT030 OVC060=

USA.gov is the U.S. government's official web portal to all federal, state and local government web resources and services.